Time;durP1;ratioP1;P1;durP2;ratioP2;P2;SDS_P1;SDS_P2;PMS_P1;PMS_P2;Temp;Humidity;BMP_temperature;BMP_pressure;BME280_temperature;BME280_humidity;BME280_pressure;Samples;Min_cycle;Max_cycle;Signal;HPM_P1;HPM_P2
2022/01/29 00:01:27;;;;;;;25.70;6.90;;;3.70;99.90;;;;;;4956398;28;20520;-81
2022/01/29 00:03:53;;;;;;;23.95;6.93;;;3.80;99.90;;;;;;4972412;28;20404;-81
2022/01/29 00:06:19;;;;;;;24.13;6.37;;;3.90;99.90;;;;;;4975219;28;20379;-81
2022/01/29 00:08:44;;;;;;;31.37;7.30;;;3.80;99.90;;;;;;4971246;28;20409;-82
2022/01/29 00:11:13;;;;;;;25.77;6.37;;;3.70;99.90;;;;;;5024028;28;20389;-82
2022/01/29 00:13:39;;;;;;;25.00;6.90;;;3.70;99.90;;;;;;5036066;28;20468;-81
2022/01/29 00:16:05;;;;;;;26.83;7.00;;;3.70;99.90;;;;;;4969309;28;20889;-81
2022/01/29 00:18:31;;;;;;;26.83;6.95;;;3.80;99.90;;;;;;4969045;28;20856;-82
2022/01/29 00:20:57;;;;;;;26.88;7.28;;;4.00;99.90;;;;;;5035173;28;20558;-81
2022/01/29 00:23:22;;;;;;;22.37;6.30;;;3.80;99.90;;;;;;4969073;28;20383;-81
2022/01/29 00:25:48;;;;;;;29.73;8.20;;;3.80;99.90;;;;;;4968946;28;20382;-81
2022/01/29 00:28:14;;;;;;;24.02;7.53;;;3.90;99.90;;;;;;4968950;28;20908;-80
2022/01/29 00:30:42;;;;;;;25.77;7.10;;;3.90;99.90;;;;;;4968899;28;20532;-81
2022/01/29 00:33:12;;;;;;;27.58;7.40;;;4.00;99.90;;;;;;5036051;28;20418;-81
2022/01/29 00:35:39;;;;;;;32.55;7.95;;;4.20;99.90;;;;;;5035058;28;20399;-81
2022/01/29 00:38:05;;;;;;;29.50;7.85;;;4.00;99.90;;;;;;4968648;28;20387;-80
2022/01/29 00:40:31;;;;;;;25.17;7.57;;;4.00;99.90;;;;;;4968776;28;20394;-81
2022/01/29 00:42:58;;;;;;;25.38;7.80;;;4.00;99.90;;;;;;4968883;28;20831;-81
2022/01/29 00:45:24;;;;;;;22.27;6.75;;;3.90;99.90;;;;;;4968190;28;20446;-81
2022/01/29 00:47:49;;;;;;;25.20;7.63;;;4.10;99.90;;;;;;5035789;28;20399;-81
2022/01/29 00:50:15;;;;;;;24.20;7.47;;;4.10;99.90;;;;;;4968813;28;20429;-80
2022/01/29 00:52:41;;;;;;;23.98;7.18;;;4.10;99.90;;;;;;4968809;28;20383;-82
2022/01/29 00:55:08;;;;;;;25.83;7.32;;;4.00;99.90;;;;;;4968453;28;20410;-81
2022/01/29 00:57:37;;;;;;;26.15;7.50;;;4.10;99.90;;;;;;5035256;28;20398;-81
2022/01/29 01:00:04;;;;;;;23.15;7.00;;;4.00;99.90;;;;;;4969346;28;21266;-81
2022/01/29 01:02:30;;;;;;;28.00;7.07;;;3.90;99.90;;;;;;4968468;28;20499;-81
2022/01/29 01:04:55;;;;;;;28.13;7.70;;;3.90;99.90;;;;;;4964279;28;20402;-81
2022/01/29 01:07:21;;;;;;;28.83;7.95;;;4.00;99.90;;;;;;5035135;28;20455;-81
2022/01/29 01:09:46;;;;;;;25.90;6.65;;;4.20;99.90;;;;;;4966840;28;20399;-81
2022/01/29 01:12:12;;;;;;;25.80;7.70;;;4.00;99.90;;;;;;5034885;28;20417;-81
2022/01/29 01:14:38;;;;;;;30.80;8.20;;;4.00;99.90;;;;;;4967319;28;20492;-81
2022/01/29 01:17:04;;;;;;;29.20;7.53;;;4.30;99.90;;;;;;5035467;28;20405;-81
2022/01/29 01:19:30;;;;;;;28.95;7.55;;;4.00;99.90;;;;;;5034481;28;20414;-82
2022/01/29 01:21:56;;;;;;;25.35;6.72;;;4.10;99.90;;;;;;4968745;28;20395;-81
2022/01/29 01:24:23;;;;;;;26.83;7.50;;;4.10;99.90;;;;;;5035871;28;20417;-82
2022/01/29 01:26:49;;;;;;;23.40;6.43;;;4.20;99.90;;;;;;5034459;28;20402;-81
2022/01/29 01:29:15;;;;;;;27.93;7.20;;;4.20;99.90;;;;;;5034484;28;20390;-81
2022/01/29 01:31:43;;;;;;;25.73;7.60;;;4.20;99.90;;;;;;5034835;28;20395;-82
2022/01/29 01:34:09;;;;;;;24.52;6.88;;;4.20;99.90;;;;;;4968395;28;20426;-82
2022/01/29 01:36:42;;;;;;;29.65;7.85;;;4.40;99.90;;;;;;4969644;28;20516;-81
2022/01/29 01:39:10;;;;;;;26.58;7.05;;;4.10;99.90;;;;;;4967755;28;20422;-82
2022/01/29 01:41:40;;;;;;;26.70;7.63;;;4.20;99.90;;;;;;4969728;28;20568;-82
2022/01/29 01:44:09;;;;;;;23.92;7.22;;;4.20;99.90;;;;;;4969026;28;21615;-81
2022/01/29 01:46:35;;;;;;;22.73;7.03;;;4.20;99.90;;;;;;5034841;28;20959;-81
2022/01/29 01:49:01;;;;;;;27.30;8.35;;;4.20;99.90;;;;;;5034424;28;20492;-82
2022/01/29 01:51:27;;;;;;;27.25;7.93;;;4.30;99.90;;;;;;5035099;28;20399;-80
2022/01/29 01:53:52;;;;;;;27.98;8.02;;;4.30;99.90;;;;;;4970647;28;20406;-82
2022/01/29 01:56:18;;;;;;;26.52;8.43;;;4.40;99.90;;;;;;4968365;28;20391;-81
2022/01/29 01:58:44;;;;;;;26.40;8.18;;;4.30;99.90;;;;;;5036123;28;20919;-82
2022/01/29 02:01:09;;;;;;;27.40;8.27;;;4.10;99.90;;;;;;4969271;28;20461;-80
2022/01/29 02:03:35;;;;;;;21.30;7.87;;;4.20;99.90;;;;;;4969245;28;20742;-81
2022/01/29 02:06:01;;;;;;;21.38;8.43;;;4.50;99.90;;;;;;4968536;28;20424;-81
2022/01/29 02:08:27;;;;;;;21.73;8.20;;;4.30;99.90;;;;;;4967808;28;20475;-82
2022/01/29 02:11:01;;;;;;;29.57;9.23;;;4.20;99.90;;;;;;4968257;28;20371;-81
2022/01/29 02:13:28;;;;;;;29.85;9.05;;;4.20;99.90;;;;;;4968142;28;20961;-81
2022/01/29 02:15:55;;;;;;;27.65;8.93;;;4.50;99.90;;;;;;4968289;28;20390;-82
2022/01/29 02:18:21;;;;;;;23.63;9.07;;;4.40;99.90;;;;;;5034164;28;20423;-82
2022/01/29 02:20:47;;;;;;;23.73;9.13;;;4.40;99.90;;;;;;4965892;28;20457;-81
2022/01/29 02:23:13;;;;;;;28.73;9.77;;;4.50;99.90;;;;;;4968050;28;20395;-81
2022/01/29 02:25:42;;;;;;;31.70;10.93;;;4.30;99.90;;;;;;4967547;28;20459;-81
2022/01/29 02:28:13;;;;;;;29.63;10.52;;;4.40;99.90;;;;;;4967621;28;20399;-81
2022/01/29 02:30:41;;;;;;;27.02;10.38;;;4.40;99.90;;;;;;5034424;28;20387;-82
2022/01/29 02:33:10;;;;;;;24.73;9.60;;;4.50;99.90;;;;;;4967796;28;20410;-81
2022/01/29 02:35:40;;;;;;;23.92;10.15;;;4.50;99.90;;;;;;5034068;28;20406;-80
2022/01/29 02:38:05;;;;;;;27.02;9.75;;;4.40;99.90;;;;;;4968032;28;20405;-81
2022/01/29 02:40:35;;;;;;;30.10;10.80;;;4.30;99.90;;;;;;4967414;28;20473;-81
2022/01/29 02:43:14;;;;;;;26.48;10.18;;;4.30;99.90;;;;;;4967858;28;20422;-81
2022/01/29 02:45:41;;;;;;;31.60;10.97;;;4.40;99.90;;;;;;4967166;28;20390;-81
2022/01/29 02:48:07;;;;;;;27.75;10.15;;;4.40;99.90;;;;;;5034129;28;20391;-80
2022/01/29 02:50:33;;;;;;;27.17;10.65;;;4.40;99.90;;;;;;4967812;28;20498;-80
2022/01/29 02:52:58;;;;;;;26.25;10.90;;;4.50;99.90;;;;;;4968216;28;20415;-81
2022/01/29 02:55:24;;;;;;;28.52;10.57;;;4.50;99.90;;;;;;4968185;28;20451;-81
2022/01/29 02:57:50;;;;;;;21.42;9.80;;;4.40;99.90;;;;;;4967453;28;20397;-81
2022/01/29 03:00:16;;;;;;;29.40;11.00;;;4.40;99.90;;;;;;4966935;28;20440;-81
2022/01/29 03:02:41;;;;;;;24.53;10.23;;;4.40;99.90;;;;;;4968040;28;20916;-81
2022/01/29 03:05:07;;;;;;;26.93;11.70;;;4.40;99.90;;;;;;5034823;28;20425;-81
2022/01/29 03:07:33;;;;;;;24.98;10.73;;;4.40;99.90;;;;;;4967314;28;20395;-81
2022/01/29 03:09:58;;;;;;;27.95;11.32;;;4.40;99.90;;;;;;4967316;28;20734;-82
2022/01/29 03:12:24;;;;;;;27.38;11.23;;;4.40;99.90;;;;;;5034148;28;20422;-81
2022/01/29 03:14:50;;;;;;;23.45;10.52;;;4.30;99.90;;;;;;5039722;28;20433;-81
2022/01/29 03:17:15;;;;;;;24.92;11.40;;;4.40;99.90;;;;;;4971095;28;20888;-81
2022/01/29 03:19:41;;;;;;;25.93;10.60;;;4.40;99.90;;;;;;5039557;28;20397;-81
2022/01/29 03:22:06;;;;;;;28.30;11.67;;;4.40;99.90;;;;;;5036567;28;20546;-82
2022/01/29 03:24:32;;;;;;;25.77;11.30;;;4.30;99.90;;;;;;5037417;28;20414;-81
2022/01/29 03:26:58;;;;;;;28.83;11.83;;;4.40;99.90;;;;;;4972542;28;20402;-81
2022/01/29 03:29:23;;;;;;;28.67;11.73;;;4.40;99.90;;;;;;4972840;28;20407;-80
2022/01/29 03:31:49;;;;;;;25.67;11.83;;;4.30;99.90;;;;;;5039135;28;20424;-81
2022/01/29 03:34:14;;;;;;;33.42;12.52;;;4.50;99.90;;;;;;4971501;28;20410;-81
2022/01/29 03:36:40;;;;;;;27.50;12.53;;;4.50;99.90;;;;;;4970780;28;20885;-82
2022/01/29 03:39:06;;;;;;;29.43;12.87;;;4.50;99.90;;;;;;4976203;28;21206;-81
2022/01/29 03:41:31;;;;;;;28.03;12.63;;;4.30;99.90;;;;;;4975069;28;20406;-80
2022/01/29 03:44:02;;;;;;;28.38;13.25;;;4.20;99.90;;;;;;4975640;28;20416;-81
2022/01/29 03:46:28;;;;;;;29.00;13.25;;;4.20;99.90;;;;;;4974785;28;20468;-80
2022/01/29 03:48:53;;;;;;;28.95;13.68;;;4.30;99.90;;;;;;4975493;28;20395;-81
2022/01/29 03:51:19;;;;;;;31.08;14.00;;;4.20;99.90;;;;;;4976678;28;20476;-80
2022/01/29 03:53:46;;;;;;;29.07;13.93;;;4.40;99.90;;;;;;4974536;28;20418;-80
2022/01/29 03:56:11;;;;;;;33.45;14.52;;;4.30;99.90;;;;;;5043221;28;20714;-80
2022/01/29 03:58:37;;;;;;;29.77;13.90;;;4.20;99.90;;;;;;5041030;28;20411;-79
2022/01/29 04:01:03;;;;;;;33.30;14.75;;;4.20;99.90;;;;;;4975617;28;20494;-82
2022/01/29 04:03:28;;;;;;;30.95;14.38;;;4.20;99.90;;;;;;4971970;28;20391;-82
2022/01/29 04:05:54;;;;;;;29.57;14.37;;;4.30;99.90;;;;;;4973952;28;20383;-81
2022/01/29 04:08:20;;;;;;;30.33;15.03;;;4.30;99.90;;;;;;4974512;28;20386;-81
2022/01/29 04:10:47;;;;;;;32.42;15.93;;;4.50;99.90;;;;;;4974301;28;20872;-80
2022/01/29 04:13:14;;;;;;;34.15;15.80;;;4.30;99.90;;;;;;4972935;28;20561;-80
2022/01/29 04:15:40;;;;;;;31.20;15.27;;;4.40;99.90;;;;;;5039616;28;20391;-80
2022/01/29 04:18:06;;;;;;;26.35;15.88;;;4.40;99.90;;;;;;4973406;28;20406;-80
2022/01/29 04:20:31;;;;;;;32.72;16.80;;;4.30;99.90;;;;;;4972457;28;20398;-81
2022/01/29 04:22:57;;;;;;;38.90;17.48;;;4.30;99.90;;;;;;4973460;28;20406;-79
2022/01/29 04:25:24;;;;;;;33.27;17.40;;;4.40;99.90;;;;;;4972423;28;20395;-80
2022/01/29 04:27:50;;;;;;;40.13;19.40;;;4.30;99.90;;;;;;4971929;28;20394;-80
2022/01/29 04:30:28;;;;;;;37.45;18.90;;;4.40;99.90;;;;;;4974283;28;20748;-80
2022/01/29 04:32:59;;;;;;;36.03;18.13;;;4.40;99.90;;;;;;5039509;28;20503;-81
2022/01/29 04:35:28;;;;;;;36.55;18.58;;;4.40;99.90;;;;;;5039664;28;20403;-80
2022/01/29 04:37:54;;;;;;;38.70;19.23;;;4.30;99.90;;;;;;4972665;28;20888;-82
2022/01/29 04:40:20;;;;;;;32.17;18.10;;;4.50;99.90;;;;;;4971986;28;20457;-80
2022/01/29 04:42:46;;;;;;;32.20;18.92;;;4.10;99.90;;;;;;4972372;28;20756;-81
2022/01/29 04:45:12;;;;;;;34.92;19.67;;;4.20;99.90;;;;;;4972606;28;20391;-80
2022/01/29 04:47:38;;;;;;;38.25;19.73;;;4.40;99.90;;;;;;4971663;28;20403;-81
2022/01/29 04:50:05;;;;;;;35.13;19.20;;;4.20;99.90;;;;;;4970139;28;20412;-81
2022/01/29 04:52:30;;;;;;;31.67;18.70;;;4.30;99.90;;;;;;4973013;28;20398;-81
2022/01/29 04:54:56;;;;;;;36.03;20.37;;;4.20;99.90;;;;;;5039228;28;20471;-80
2022/01/29 04:57:22;;;;;;;32.42;19.67;;;4.30;99.90;;;;;;4971790;28;20391;-80
2022/01/29 04:59:47;;;;;;;35.33;19.97;;;4.40;99.90;;;;;;4971469;28;20907;-81
2022/01/29 05:02:13;;;;;;;34.93;18.77;;;4.40;99.90;;;;;;4971483;28;20398;-80
2022/01/29 05:04:38;;;;;;;35.90;20.77;;;4.20;99.90;;;;;;4971301;28;20455;-81
2022/01/29 05:07:04;;;;;;;34.60;20.20;;;4.20;99.90;;;;;;4971583;28;20414;-81
2022/01/29 05:09:30;;;;;;;36.03;20.00;;;4.50;99.90;;;;;;4972507;28;20459;-81
2022/01/29 05:11:57;;;;;;;39.03;21.25;;;4.30;99.90;;;;;;4971849;28;21344;-80
2022/01/29 05:14:41;;;;;;;38.28;20.77;;;4.30;99.90;;;;;;5037955;28;20411;-81
2022/01/29 05:28:00;;;;;;;40.33;24.67;;;4.40;99.90;;;;;;4970885;28;20430;-80
2022/01/29 05:30:25;;;;;;;37.33;24.10;;;4.20;99.90;;;;;;4972584;28;20379;-81
2022/01/29 05:32:51;;;;;;;38.40;22.73;;;4.20;99.90;;;;;;4971235;28;20455;-81
2022/01/29 05:35:17;;;;;;;39.42;24.02;;;4.20;99.90;;;;;;4969823;28;20407;-81
2022/01/29 05:37:42;;;;;;;40.80;25.37;;;4.10;99.90;;;;;;4970708;28;20869;-81
2022/01/29 05:40:08;;;;;;;42.87;25.53;;;4.20;99.90;;;;;;4970265;28;20899;-80
2022/01/29 05:42:34;;;;;;;41.33;25.33;;;4.10;99.90;;;;;;4969934;28;20418;-83
2022/01/29 05:44:59;;;;;;;45.37;26.43;;;4.10;99.90;;;;;;4973422;28;20386;-80
2022/01/29 05:47:25;;;;;;;43.08;27.83;;;4.10;99.90;;;;;;5042631;28;20414;-80
2022/01/29 05:49:51;;;;;;;44.75;27.38;;;4.20;99.90;;;;;;4976680;28;20413;-81
2022/01/29 05:52:16;;;;;;;43.03;27.63;;;4.20;99.90;;;;;;4970423;28;20473;-81
2022/01/29 05:54:42;;;;;;;48.13;28.60;;;4.20;99.90;;;;;;5040424;28;20423;-81
2022/01/29 05:57:09;;;;;;;44.00;28.27;;;4.20;99.90;;;;;;5040017;28;20402;-81
2022/01/29 05:59:36;;;;;;;46.33;29.23;;;4.20;99.90;;;;;;4970632;28;20512;-82
2022/01/29 06:02:02;;;;;;;48.97;29.35;;;4.20;99.90;;;;;;4973962;28;20759;-81
2022/01/29 06:04:27;;;;;;;43.85;28.17;;;4.30;99.90;;;;;;5038159;28;20885;-81
2022/01/29 06:06:53;;;;;;;48.47;28.63;;;4.20;99.90;;;;;;4972696;28;20464;-80
2022/01/29 06:09:18;;;;;;;49.53;29.33;;;4.20;99.90;;;;;;4972316;28;20409;-81
2022/01/29 06:11:44;;;;;;;47.10;29.65;;;4.30;99.90;;;;;;5039532;28;20434;-80
2022/01/29 06:14:10;;;;;;;45.78;30.15;;;4.40;99.90;;;;;;4972357;28;20900;-82
2022/01/29 06:16:35;;;;;;;43.60;29.67;;;4.20;99.90;;;;;;4972095;28;20403;-81
2022/01/29 06:19:01;;;;;;;49.03;30.17;;;4.30;99.90;;;;;;4971213;28;20401;-81
2022/01/29 06:21:26;;;;;;;46.80;30.55;;;4.50;99.90;;;;;;5036202;28;20417;-81
2022/01/29 06:23:52;;;;;;;45.05;29.08;;;4.20;99.90;;;;;;5037863;28;20390;-81
2022/01/29 06:26:18;;;;;;;48.40;30.15;;;4.30;99.90;;;;;;5036985;28;20910;-80
2022/01/29 06:28:44;;;;;;;48.13;29.57;;;4.30;99.90;;;;;;4970363;28;20422;-82
2022/01/29 06:31:09;;;;;;;44.13;30.13;;;4.40;99.90;;;;;;5035638;28;20398;-81
2022/01/29 06:33:35;;;;;;;40.53;28.83;;;4.40;99.90;;;;;;4967832;28;20769;-81
2022/01/29 06:36:02;;;;;;;43.33;28.80;;;4.40;99.90;;;;;;5036067;28;21242;-80
2022/01/29 06:38:27;;;;;;;40.42;28.90;;;4.30;99.90;;;;;;4969041;28;20754;-81
2022/01/29 06:40:53;;;;;;;39.63;28.25;;;4.30;99.90;;;;;;4968011;28;20397;-81
2022/01/29 06:43:19;;;;;;;46.30;29.63;;;4.30;99.90;;;;;;4970622;28;20422;-80
2022/01/29 06:45:46;;;;;;;40.08;28.67;;;4.40;99.90;;;;;;4968516;28;20387;-80
2022/01/29 06:48:12;;;;;;;45.50;29.73;;;4.40;99.90;;;;;;4970070;28;20394;-81
2022/01/29 06:50:39;;;;;;;45.20;29.03;;;4.40;99.90;;;;;;4970075;28;21328;-81
2022/01/29 06:53:06;;;;;;;45.30;27.97;;;4.70;99.90;;;;;;4970635;28;20420;-80
2022/01/29 06:55:32;;;;;;;41.35;29.48;;;4.40;99.90;;;;;;4970424;28;20425;-80
2022/01/29 06:57:58;;;;;;;41.47;28.08;;;4.40;99.90;;;;;;5037193;28;20394;-80
2022/01/29 07:00:23;;;;;;;39.67;27.23;;;4.60;99.90;;;;;;4969510;28;20411;-80
2022/01/29 07:02:49;;;;;;;40.83;27.70;;;4.40;99.90;;;;;;5037252;28;20402;-79
2022/01/29 07:05:15;;;;;;;42.60;28.17;;;4.40;99.90;;;;;;5037919;28;20407;-81
2022/01/29 07:07:40;;;;;;;38.93;28.43;;;4.40;99.90;;;;;;4969889;28;20501;-80
2022/01/29 07:10:08;;;;;;;39.33;28.85;;;4.50;99.90;;;;;;4971334;28;20383;-81
2022/01/29 07:12:37;;;;;;;40.83;28.38;;;4.60;99.90;;;;;;4971418;28;20405;-80
2022/01/29 07:15:03;;;;;;;37.50;27.92;;;4.50;99.90;;;;;;5041650;28;20419;-82
2022/01/29 07:17:29;;;;;;;38.03;28.47;;;4.50;99.90;;;;;;5038429;28;20506;-82
2022/01/29 07:19:55;;;;;;;39.13;28.50;;;4.50;99.90;;;;;;4971793;28;20440;-81
2022/01/29 07:22:21;;;;;;;43.30;28.77;;;4.80;99.90;;;;;;4972835;28;20387;-80
2022/01/29 07:24:47;;;;;;;41.47;28.83;;;4.50;99.90;;;;;;4976506;28;20379;-81
2022/01/29 07:27:13;;;;;;;38.37;27.80;;;4.50;99.90;;;;;;4973677;28;20394;-81
2022/01/29 07:29:38;;;;;;;42.47;29.57;;;4.40;99.90;;;;;;4972971;28;20395;-81
2022/01/29 07:32:04;;;;;;;40.03;29.25;;;4.60;99.90;;;;;;4973070;28;20895;-81
2022/01/29 07:34:30;;;;;;;42.08;29.40;;;4.50;99.90;;;;;;4961129;28;20485;-81
2022/01/29 07:36:57;;;;;;;43.43;29.90;;;4.80;99.90;;;;;;5042483;28;20389;-80
2022/01/29 07:39:24;;;;;;;42.95;28.48;;;4.60;99.90;;;;;;4973820;28;20410;-81
2022/01/29 07:41:50;;;;;;;39.92;27.63;;;4.50;99.90;;;;;;4968854;28;20404;-79
2022/01/29 07:44:16;;;;;;;41.80;28.85;;;4.70;99.90;;;;;;4975170;28;20446;-83
2022/01/29 07:46:42;;;;;;;42.83;29.77;;;4.60;99.90;;;;;;4975111;28;20484;-81
2022/01/29 07:49:07;;;;;;;39.30;28.08;;;4.80;99.90;;;;;;4974654;28;20394;-81
2022/01/29 07:51:33;;;;;;;40.20;27.60;;;4.70;99.90;;;;;;4973624;28;20407;-81
2022/01/29 07:53:59;;;;;;;44.90;29.17;;;4.80;99.90;;;;;;4974130;28;20453;-81
2022/01/29 07:56:25;;;;;;;40.90;28.90;;;4.70;99.90;;;;;;4972547;28;20407;-82
2022/01/29 07:58:51;;;;;;;38.93;28.67;;;4.80;99.90;;;;;;4972893;28;20390;-81
2022/01/29 08:01:17;;;;;;;41.92;29.27;;;4.70;99.90;;;;;;5042197;28;20430;-80
2022/01/29 08:03:50;;;;;;;41.97;29.60;;;4.80;99.90;;;;;;5043173;28;20422;-82
2022/01/29 08:06:17;;;;;;;33.55;27.20;;;4.90;99.90;;;;;;5041856;28;20411;-79
2022/01/29 08:08:43;;;;;;;36.30;26.92;;;5.00;99.90;;;;;;4976791;28;20409;-80
2022/01/29 08:11:11;;;;;;;38.58;27.13;;;4.90;99.90;;;;;;5041945;28;20399;-81
2022/01/29 08:13:37;;;;;;;36.90;27.25;;;4.90;99.90;;;;;;5041291;28;20441;-82
2022/01/29 08:16:03;;;;;;;38.33;27.92;;;5.00;99.90;;;;;;5044536;28;20402;-81
2022/01/29 08:18:29;;;;;;;35.08;27.35;;;5.10;99.90;;;;;;5040493;28;20776;-81
2022/01/29 08:20:55;;;;;;;38.05;27.42;;;5.10;99.90;;;;;;4974382;28;20844;-82
2022/01/29 08:23:21;;;;;;;37.15;28.90;;;5.00;99.90;;;;;;4954296;28;20862;-81
2022/01/29 08:25:46;;;;;;;40.77;28.30;;;5.20;99.90;;;;;;5028234;28;20394;-80
2022/01/29 08:28:12;;;;;;;38.00;29.63;;;5.10;99.90;;;;;;4974025;28;20444;-82
2022/01/29 08:30:38;;;;;;;38.47;29.55;;;5.10;99.90;;;;;;4973901;28;20396;-80
2022/01/29 08:33:06;;;;;;;37.05;28.85;;;5.40;99.90;;;;;;4971971;28;20391;-81
2022/01/29 08:35:32;;;;;;;42.17;30.95;;;5.20;99.90;;;;;;4974924;28;20475;-81
2022/01/29 08:37:58;;;;;;;44.33;31.80;;;5.20;99.90;;;;;;4975582;28;20401;-81
2022/01/29 08:40:24;;;;;;;46.57;33.43;;;5.10;99.90;;;;;;4974898;28;20493;-80
2022/01/29 08:42:49;;;;;;;48.67;33.47;;;5.20;99.90;;;;;;4972494;28;20405;-80
2022/01/29 08:45:15;;;;;;;50.83;34.60;;;5.20;99.90;;;;;;5040853;28;20398;-80
2022/01/29 08:47:42;;;;;;;52.47;34.73;;;5.30;99.90;;;;;;4973076;28;21248;-81
2022/01/29 08:50:12;;;;;;;51.42;34.85;;;5.30;99.90;;;;;;4972452;28;20410;-80
2022/01/29 08:52:38;;;;;;;48.53;34.53;;;5.20;99.90;;;;;;4973758;28;20410;-79
2022/01/29 08:55:07;;;;;;;52.00;36.65;;;5.30;99.90;;;;;;4973583;28;20411;-80
2022/01/29 08:57:33;;;;;;;52.80;36.33;;;5.30;99.90;;;;;;5038259;28;20441;-80
2022/01/29 09:00:00;;;;;;;50.40;37.35;;;5.40;99.90;;;;;;4970890;28;20425;-81
2022/01/29 09:02:26;;;;;;;55.33;39.40;;;5.50;99.90;;;;;;5040289;28;20411;-80
2022/01/29 09:04:54;;;;;;;53.22;36.53;;;5.50;99.90;;;;;;4973305;28;20418;-81
2022/01/29 09:07:20;;;;;;;49.67;36.93;;;5.50;99.90;;;;;;5038048;28;20387;-80
2022/01/29 09:09:46;;;;;;;51.37;36.43;;;5.50;99.90;;;;;;4973038;28;20379;-80
2022/01/29 09:12:12;;;;;;;50.70;36.03;;;5.50;99.90;;;;;;5039452;28;20442;-81
2022/01/29 09:14:38;;;;;;;48.25;36.15;;;5.60;99.90;;;;;;4974718;28;20505;-78
2022/01/29 09:17:04;;;;;;;51.85;36.25;;;5.50;99.90;;;;;;4972655;28;20420;-80
2022/01/29 09:19:29;;;;;;;50.65;36.72;;;5.60;99.90;;;;;;4974464;28;20885;-81
2022/01/29 09:21:55;;;;;;;54.92;38.25;;;5.50;99.90;;;;;;4973450;28;20436;-80
2022/01/29 09:24:21;;;;;;;56.38;38.47;;;5.60;99.90;;;;;;5039758;28;20592;-81
2022/01/29 09:26:46;;;;;;;51.20;36.43;;;5.50;99.90;;;;;;4972462;28;20401;-81
2022/01/29 09:29:12;;;;;;;59.97;40.60;;;5.60;99.90;;;;;;4973538;28;20454;-81
2022/01/29 09:31:38;;;;;;;53.38;38.15;;;5.70;99.90;;;;;;4972141;28;20381;-80
2022/01/29 09:34:03;;;;;;;52.65;38.58;;;5.60;99.90;;;;;;4971125;28;20411;-81
2022/01/29 09:36:29;;;;;;;55.17;38.70;;;5.60;99.90;;;;;;4971757;28;20413;-80
2022/01/29 09:38:55;;;;;;;58.47;40.05;;;5.70;99.90;;;;;;5038919;28;20395;-80
2022/01/29 09:41:24;;;;;;;59.33;41.30;;;5.60;99.90;;;;;;4970353;28;20394;-80
2022/01/29 09:43:52;;;;;;;59.83;40.80;;;5.70;99.90;;;;;;4972969;28;20442;-81
2022/01/29 09:46:18;;;;;;;55.78;40.47;;;5.90;99.90;;;;;;4972070;28;20440;-81
2022/01/29 09:48:44;;;;;;;59.40;40.47;;;5.70;99.90;;;;;;5041309;28;20401;-81
2022/01/29 09:51:13;;;;;;;63.92;42.33;;;6.00;99.90;;;;;;4970717;28;20403;-83
2022/01/29 09:53:42;;;;;;;62.17;41.88;;;5.80;99.90;;;;;;4974032;28;20497;-82
2022/01/29 09:56:09;;;;;;;65.13;42.95;;;5.90;99.90;;;;;;4971944;28;20403;-80
2022/01/29 09:58:34;;;;;;;62.30;41.85;;;6.00;99.90;;;;;;4973910;28;20383;-81
2022/01/29 10:01:02;;;;;;;60.43;41.60;;;6.20;99.90;;;;;;4971950;28;20430;-81
2022/01/29 10:03:31;;;;;;;60.58;41.70;;;6.00;99.90;;;;;;5041512;28;20394;-80
2022/01/29 10:05:58;;;;;;;64.63;43.75;;;6.10;99.90;;;;;;5042743;28;20383;-81
2022/01/29 10:08:24;;;;;;;62.22;44.25;;;6.20;99.90;;;;;;4976139;28;20410;-80
2022/01/29 10:10:53;;;;;;;64.18;42.03;;;6.20;99.90;;;;;;5042688;28;20447;-80
2022/01/29 10:13:29;;;;;;;62.53;41.95;;;6.30;99.90;;;;;;4975316;28;20387;-80
2022/01/29 10:16:21;;;;;;;61.17;42.30;;;6.30;99.90;;;;;;5038638;28;20387;-82
2022/01/29 10:19:03;;;;;;;64.40;42.63;;;6.40;99.90;;;;;;4974309;28;20412;-80
2022/01/29 10:21:32;;;;;;;66.78;43.30;;;6.30;99.90;;;;;;4973775;28;20375;-80
2022/01/29 10:24:13;;;;;;;63.40;43.63;;;6.40;99.90;;;;;;4972871;28;20466;-81
2022/01/29 10:26:43;;;;;;;62.90;42.30;;;6.40;99.90;;;;;;4955307;28;20377;-79
2022/01/29 10:29:25;;;;;;;64.35;42.45;;;6.40;99.90;;;;;;5037232;28;20474;-81
2022/01/29 10:31:56;;;;;;;59.97;42.10;;;6.50;99.90;;;;;;4974216;28;20444;-80
2022/01/29 10:34:33;;;;;;;60.58;42.60;;;6.60;99.90;;;;;;4974480;28;20476;-82
2022/01/29 10:37:23;;;;;;;64.10;44.72;;;6.50;99.90;;;;;;4969751;28;20405;-80
2022/01/29 10:39:53;;;;;;;67.47;44.63;;;6.60;99.90;;;;;;4963178;28;20397;-80
2022/01/29 10:42:25;;;;;;;63.50;42.78;;;6.60;99.90;;;;;;5029068;28;20399;-82
2022/01/29 10:44:54;;;;;;;67.63;44.05;;;6.80;99.90;;;;;;4964684;28;20380;-81
2022/01/29 10:47:20;;;;;;;69.88;44.60;;;6.90;99.90;;;;;;5026207;28;20408;-82
2022/01/29 10:49:54;;;;;;;66.93;45.53;;;6.60;99.90;;;;;;4963114;28;20424;-82
2022/01/29 10:52:31;;;;;;;64.20;43.83;;;6.60;99.90;;;;;;4963030;28;20486;-79
2022/01/29 10:55:06;;;;;;;64.88;43.65;;;6.70;99.90;;;;;;5028222;28;20409;-80
2022/01/29 10:57:36;;;;;;;63.63;42.72;;;6.70;99.90;;;;;;5026028;28;20388;-80
2022/01/29 11:00:05;;;;;;;61.85;42.35;;;6.70;99.90;;;;;;5026080;28;20395;-80
2022/01/29 11:02:32;;;;;;;61.83;43.45;;;6.70;99.90;;;;;;4959407;28;20511;-80
2022/01/29 11:05:01;;;;;;;64.00;42.40;;;6.80;99.90;;;;;;4961435;28;20384;-81
2022/01/29 11:07:29;;;;;;;57.60;40.97;;;6.80;99.90;;;;;;5026697;28;20512;-80
2022/01/29 11:09:55;;;;;;;56.88;41.17;;;6.90;99.90;;;;;;4961495;28;20397;-80
2022/01/29 11:12:23;;;;;;;55.05;39.33;;;7.10;99.90;;;;;;4961364;28;20388;-80
2022/01/29 11:14:53;;;;;;;57.10;40.72;;;7.00;99.90;;;;;;4960931;28;20412;-80
2022/01/29 11:17:19;;;;;;;52.25;38.00;;;7.00;99.90;;;;;;4975586;28;20425;-80
2022/01/29 11:19:45;;;;;;;52.50;38.17;;;7.00;99.90;;;;;;4963976;28;20867;-80
2022/01/29 11:22:12;;;;;;;50.38;36.67;;;7.20;99.90;;;;;;4987251;28;20380;-81
2022/01/29 11:24:42;;;;;;;47.03;35.38;;;7.00;99.90;;;;;;4962740;28;20392;-82
2022/01/29 11:27:27;;;;;;;51.78;36.10;;;7.10;99.90;;;;;;5029084;28;20384;-80
2022/01/29 11:29:59;;;;;;;48.08;34.00;;;7.10;99.90;;;;;;4962874;28;20917;-81
2022/01/29 11:32:27;;;;;;;47.03;33.65;;;7.20;99.90;;;;;;5031982;28;20393;-79
2022/01/29 11:35:25;;;;;;;41.10;31.75;;;7.30;99.90;;;;;;5027240;28;20408;-80
2022/01/29 11:38:03;;;;;;;42.20;32.60;;;7.30;99.90;;;;;;5020157;28;20414;-81
2022/01/29 11:40:36;;;;;;;39.35;30.67;;;7.30;99.90;;;;;;4964455;28;20397;-81
2022/01/29 11:43:14;;;;;;;38.70;29.63;;;7.40;99.90;;;;;;5045629;28;20396;-81
2022/01/29 11:46:03;;;;;;;36.88;28.40;;;7.40;99.90;;;;;;5029165;28;20462;-81
2022/01/29 11:48:30;;;;;;;34.78;28.85;;;7.40;99.90;;;;;;5029056;28;20894;-82
2022/01/29 11:51:41;;;;;;;33.78;26.67;;;7.40;99.90;;;;;;4956987;28;20408;-82
2022/01/29 11:54:08;;;;;;;33.72;26.67;;;7.50;99.90;;;;;;4958036;28;20428;-81
2022/01/29 11:56:39;;;;;;;32.78;25.80;;;7.50;99.90;;;;;;4956226;28;20391;-80
2022/01/29 11:59:38;;;;;;;29.05;23.92;;;7.50;99.90;;;;;;4971320;28;20453;-82
2022/01/29 12:02:24;;;;;;;29.73;24.30;;;7.60;99.90;;;;;;4979606;28;20893;-81
2022/01/29 12:07:24;;;;;;;27.47;22.30;;;7.70;99.90;;;;;;4975525;28;20405;-81
2022/01/29 12:09:57;;;;;;;26.23;21.92;;;7.90;99.90;;;;;;4977438;28;20430;-81
2022/01/29 12:12:27;;;;;;;24.85;20.88;;;7.70;99.90;;;;;;5034965;28;20451;-80
2022/01/29 12:15:40;;;;;;;23.53;20.07;;;7.80;99.90;;;;;;4964613;28;20416;-81
2022/01/29 12:18:32;;;;;;;22.27;19.20;;;7.80;99.90;;;;;;5032112;28;20758;-83
2022/01/29 12:21:02;;;;;;;24.10;19.47;;;7.70;99.90;;;;;;4965091;28;20393;-82
2022/01/29 12:23:28;;;;;;;21.20;18.08;;;7.80;99.90;;;;;;4963689;28;20368;-81
2022/01/29 12:25:59;;;;;;;23.20;19.00;;;7.80;99.90;;;;;;5032109;28;20418;-82
2022/01/29 12:28:26;;;;;;;22.20;18.00;;;7.90;99.90;;;;;;4968113;28;20738;-80
2022/01/29 12:30:52;;;;;;;21.50;17.70;;;8.00;99.90;;;;;;4965206;28;20380;-79
2022/01/29 12:33:20;;;;;;;20.52;17.05;;;7.90;99.90;;;;;;5035954;28;20441;-81
2022/01/29 12:35:53;;;;;;;18.38;16.05;;;7.90;99.90;;;;;;4971837;28;20396;-81
2022/01/29 12:38:34;;;;;;;19.80;16.35;;;8.10;99.90;;;;;;5028464;28;20422;-80
2022/01/29 12:41:03;;;;;;;16.50;14.70;;;8.10;99.90;;;;;;4960900;28;20436;-81
2022/01/29 12:43:38;;;;;;;17.88;14.88;;;8.10;99.90;;;;;;4963705;28;20851;-80
2022/01/29 12:46:09;;;;;;;16.10;13.93;;;8.20;99.90;;;;;;5025884;28;20408;-80
2022/01/29 12:48:36;;;;;;;15.23;13.20;;;8.10;99.90;;;;;;5028531;28;20411;-80
2022/01/29 12:51:10;;;;;;;15.00;13.50;;;8.30;99.90;;;;;;4962869;28;20816;-79
2022/01/29 12:53:39;;;;;;;15.77;13.90;;;8.40;99.90;;;;;;4962782;28;20453;-80
2022/01/29 12:56:11;;;;;;;13.80;12.02;;;8.30;99.90;;;;;;5031052;28;20735;-79